createdAt,value
2022-09-30T00:01:09.420Z,11.80
2022-09-30T00:03:39.177Z,11.90
2022-09-30T00:06:08.678Z,11.80
2022-09-30T00:08:37.304Z,11.70
2022-09-30T00:11:08.441Z,11.50
2022-09-30T00:13:37.558Z,11.30
2022-09-30T00:16:05.384Z,11.10
2022-09-30T00:18:32.657Z,11.10
2022-09-30T00:20:59.936Z,11.40
2022-09-30T00:23:26.838Z,11.40
2022-09-30T00:25:59.426Z,11.30
2022-09-30T00:28:27.339Z,11.00
2022-09-30T00:30:55.080Z,11.00
2022-09-30T00:33:21.981Z,10.80
2022-09-30T00:35:48.803Z,10.80
2022-09-30T00:38:15.726Z,11.00
2022-09-30T00:40:43.292Z,11.30
2022-09-30T00:43:17.450Z,10.90
2022-09-30T00:46:05.502Z,10.60
2022-09-30T00:48:38.573Z,10.50
2022-09-30T00:51:07.876Z,10.50
2022-09-30T00:53:44.713Z,10.40
2022-09-30T00:56:21.706Z,10.50
2022-09-30T00:58:51.928Z,10.50
2022-09-30T01:01:20.964Z,10.80
2022-09-30T01:03:53.649Z,10.90
2022-09-30T01:06:22.624Z,10.60
2022-09-30T01:08:49.832Z,10.40
2022-09-30T01:11:17.440Z,10.40
2022-09-30T01:13:48.132Z,10.50
2022-09-30T01:16:39.960Z,10.40
2022-09-30T01:19:28.540Z,10.20
2022-09-30T01:22:20.787Z,10.30
2022-09-30T01:25:13.287Z,10.40
2022-09-30T01:27:55.734Z,10.40
2022-09-30T01:30:47.502Z,10.20
2022-09-30T01:33:25.863Z,10.10
2022-09-30T01:35:53.023Z,10.20
2022-09-30T01:38:34.396Z,10.40
2022-09-30T01:41:11.016Z,10.20
2022-09-30T01:43:57.751Z,10.00
2022-09-30T01:46:38.507Z,9.80
2022-09-30T01:49:21.980Z,9.70
2022-09-30T01:52:14.998Z,9.60
2022-09-30T01:55:02.218Z,9.60
2022-09-30T01:57:50.698Z,9.70
2022-09-30T02:00:18.997Z,9.90
2022-09-30T02:03:00.420Z,10.00
2022-09-30T02:05:27.532Z,10.00
2022-09-30T02:08:04.424Z,9.90
2022-09-30T02:10:53.152Z,10.30
2022-09-30T02:13:43.676Z,10.40
2022-09-30T02:16:15.670Z,10.40
2022-09-30T02:18:47.077Z,10.30
2022-09-30T02:21:23.349Z,9.90
2022-09-30T02:23:54.922Z,9.80
2022-09-30T02:26:25.657Z,9.80
2022-09-30T02:29:07.812Z,9.80
2022-09-30T02:31:39.316Z,10.10
2022-09-30T02:34:13.894Z,9.90
2022-09-30T02:36:56.172Z,9.80
2022-09-30T02:39:53.298Z,9.60
2022-09-30T02:42:29.575Z,9.60
2022-09-30T02:45:04.502Z,9.60
2022-09-30T02:47:36.424Z,9.80
2022-09-30T02:50:36.386Z,9.60
2022-09-30T02:53:19.079Z,9.60
2022-09-30T02:56:07.961Z,9.50
2022-09-30T02:58:39.625Z,9.60
2022-09-30T03:01:09.580Z,9.50
2022-09-30T03:03:46.865Z,9.40
2022-09-30T03:06:17.049Z,9.10
2022-09-30T03:08:45.125Z,9.20
2022-09-30T03:11:21.528Z,9.30
2022-09-30T03:14:16.096Z,9.40
2022-09-30T03:16:55.385Z,9.70
2022-09-30T03:19:47.208Z,9.80
2022-09-30T03:22:29.652Z,9.80
2022-09-30T03:25:02.234Z,9.40
2022-09-30T03:27:42.686Z,9.40
2022-09-30T03:30:32.176Z,9.50
2022-09-30T03:33:30.360Z,9.30
2022-09-30T03:36:05.503Z,9.30
2022-09-30T03:38:53.980Z,9.80
2022-09-30T03:41:39.629Z,9.60
2022-09-30T03:44:18.617Z,9.60
2022-09-30T03:46:50.355Z,9.60
2022-09-30T03:49:35.472Z,9.60
2022-09-30T03:52:10.885Z,9.50
2022-09-30T03:54:53.706Z,9.50
2022-09-30T03:57:20.656Z,9.50
2022-09-30T03:59:47.521Z,9.50
2022-09-30T04:02:14.309Z,9.40
2022-09-30T04:04:41.967Z,9.40
2022-09-30T04:07:10.441Z,9.50
2022-09-30T04:09:41.191Z,9.50
2022-09-30T04:12:08.764Z,9.40
2022-09-30T04:14:35.886Z,9.60
2022-09-30T04:17:06.640Z,9.60
2022-09-30T04:19:40.274Z,9.90
2022-09-30T04:22:07.846Z,9.80
2022-09-30T04:24:35.522Z,9.70
2022-09-30T04:27:03.112Z,9.50
2022-09-30T04:29:29.981Z,9.60
2022-09-30T04:31:57.593Z,9.60
2022-09-30T04:34:24.745Z,9.80
2022-09-30T04:36:51.805Z,9.90
2022-09-30T04:39:18.891Z,9.90
2022-09-30T04:41:45.729Z,10.10
2022-09-30T04:44:13.641Z,10.00
2022-09-30T04:46:40.538Z,9.90
2022-09-30T04:49:09.517Z,10.10
2022-09-30T04:51:38.374Z,10.30
2022-09-30T04:54:05.506Z,10.10
2022-09-30T04:56:33.280Z,10.30
2022-09-30T04:59:00.187Z,10.40
2022-09-30T05:01:27.016Z,10.40
2022-09-30T05:03:54.726Z,10.50
2022-09-30T05:06:21.847Z,10.50
2022-09-30T05:08:48.741Z,10.60
2022-09-30T05:11:18.791Z,10.40
2022-09-30T05:13:46.797Z,10.50
2022-09-30T05:16:15.035Z,10.50
2022-09-30T05:18:45.885Z,10.60
2022-09-30T05:21:15.531Z,10.60
2022-09-30T05:23:43.004Z,10.50
2022-09-30T05:26:12.583Z,10.50
2022-09-30T05:28:42.059Z,10.60
2022-09-30T05:31:09.344Z,10.70
2022-09-30T05:33:36.469Z,10.70
2022-09-30T05:36:06.762Z,10.70
2022-09-30T05:38:34.783Z,10.70
2022-09-30T05:41:11.586Z,10.60
2022-09-30T05:43:45.519Z,10.60
2022-09-30T05:46:12.858Z,10.60
2022-09-30T05:48:40.287Z,10.50
2022-09-30T05:51:07.678Z,10.40
2022-09-30T05:53:39.975Z,10.20
2022-09-30T05:56:08.308Z,10.00
2022-09-30T05:58:36.016Z,9.90
2022-09-30T06:01:13.767Z,9.80
2022-09-30T06:03:44.830Z,9.70
2022-09-30T06:06:13.082Z,9.70
2022-09-30T06:08:41.388Z,9.50
2022-09-30T06:11:13.001Z,9.60
2022-09-30T06:13:41.509Z,9.70
2022-09-30T06:16:10.598Z,9.70
2022-09-30T06:18:41.283Z,9.70
2022-09-30T06:21:11.494Z,9.60
2022-09-30T06:23:39.053Z,9.90
2022-09-30T06:26:08.417Z,10.10
2022-09-30T06:28:35.845Z,10.20
2022-09-30T06:31:03.542Z,10.30
2022-09-30T06:33:32.007Z,10.10
2022-09-30T06:35:59.821Z,9.90
2022-09-30T06:38:28.812Z,10.00
2022-09-30T06:40:56.718Z,10.10
2022-09-30T06:43:23.711Z,10.20
2022-09-30T06:45:51.804Z,10.10
2022-09-30T06:48:32.359Z,10.20
2022-09-30T06:51:02.780Z,10.40
2022-09-30T06:53:30.106Z,10.50
2022-09-30T06:55:58.076Z,10.50
2022-09-30T06:58:25.580Z,10.60
2022-09-30T07:01:04.411Z,10.60
2022-09-30T07:03:33.962Z,10.60
2022-09-30T07:06:02.951Z,10.70
2022-09-30T07:08:34.411Z,10.70
2022-09-30T07:11:08.603Z,10.90
2022-09-30T07:13:35.550Z,11.00
2022-09-30T07:16:02.589Z,11.20
2022-09-30T07:18:29.986Z,11.20
2022-09-30T07:20:57.473Z,11.00
2022-09-30T07:23:27.173Z,11.10
2022-09-30T07:26:00.465Z,11.20
2022-09-30T07:28:32.762Z,11.50
2022-09-30T07:31:30.657Z,11.30
2022-09-30T07:33:54.392Z,11.50
2022-09-30T07:36:32.146Z,11.60
2022-09-30T07:39:00.328Z,11.80
2022-09-30T07:41:29.165Z,12.00
2022-09-30T07:43:59.263Z,12.00
2022-09-30T07:46:29.816Z,12.10
2022-09-30T07:49:01.528Z,12.10
2022-09-30T07:51:37.298Z,12.30
2022-09-30T07:54:13.353Z,12.50
2022-09-30T07:57:08.052Z,12.50
2022-09-30T07:59:30.634Z,12.60
2022-09-30T08:01:58.237Z,12.80
2022-09-30T08:04:27.101Z,12.80
2022-09-30T08:07:00.172Z,13.10
2022-09-30T08:09:29.843Z,13.40
2022-09-30T08:11:57.269Z,13.50
2022-09-30T08:14:27.800Z,13.60
2022-09-30T08:16:57.065Z,13.70
2022-09-30T08:19:25.370Z,14.00
2022-09-30T08:21:55.938Z,14.00
2022-09-30T08:24:26.136Z,14.50
2022-09-30T08:26:53.720Z,14.60
2022-09-30T08:29:42.597Z,14.70
2022-09-30T08:32:08.717Z,14.90
2022-09-30T08:34:37.291Z,15.00
2022-09-30T08:37:08.729Z,15.20
2022-09-30T08:39:39.413Z,14.90
2022-09-30T08:42:41.320Z,14.90
2022-09-30T08:45:42.317Z,15.00
2022-09-30T08:48:47.326Z,15.30
2022-09-30T08:51:27.959Z,15.20
2022-09-30T08:53:57.493Z,15.30
2022-09-30T08:56:32.500Z,16.00
2022-09-30T08:59:27.944Z,15.90
2022-09-30T09:02:14.032Z,16.00
2022-09-30T09:04:44.862Z,16.00
2022-09-30T09:07:30.173Z,16.20
2022-09-30T09:10:12.277Z,16.60
2022-09-30T09:13:06.777Z,16.30
2022-09-30T09:16:00.539Z,16.50
2022-09-30T09:18:44.929Z,16.40
2022-09-30T09:21:40.916Z,16.70
2022-09-30T09:24:16.276Z,16.90
2022-09-30T09:26:43.291Z,16.90
2022-09-30T09:29:42.183Z,16.70
2022-09-30T09:32:14.831Z,16.80
2022-09-30T09:34:41.842Z,17.10
2022-09-30T09:37:22.066Z,17.50
2022-09-30T09:40:09.174Z,17.90
2022-09-30T09:43:03.507Z,17.90
2022-09-30T09:45:38.945Z,18.60
2022-09-30T09:48:12.056Z,18.90
2022-09-30T09:51:03.663Z,19.00
2022-09-30T09:53:45.315Z,19.00
2022-09-30T09:56:19.132Z,19.30
2022-09-30T09:59:05.443Z,19.00
2022-09-30T10:01:33.792Z,19.10
2022-09-30T10:04:19.874Z,19.10
2022-09-30T10:07:00.412Z,19.30
2022-09-30T10:09:39.271Z,18.90
2022-09-30T10:12:06.022Z,19.00
2022-09-30T10:14:35.703Z,18.90
2022-09-30T10:17:05.785Z,19.30
2022-09-30T10:19:35.233Z,19.20
2022-09-30T10:22:08.441Z,19.10
2022-09-30T10:24:37.546Z,19.50
2022-09-30T10:27:05.205Z,19.90
2022-09-30T10:29:35.334Z,20.10
2022-09-30T10:32:09.927Z,19.60
2022-09-30T10:34:42.749Z,19.40
2022-09-30T10:37:19.821Z,19.60
2022-09-30T10:39:56.066Z,20.10
2022-09-30T10:42:26.967Z,20.00
2022-09-30T10:45:05.042Z,20.10
2022-09-30T10:47:37.038Z,20.20
2022-09-30T10:50:16.610Z,19.60
2022-09-30T10:53:03.297Z,19.60
2022-09-30T10:55:43.171Z,19.20
2022-09-30T10:58:30.929Z,19.60
2022-09-30T11:01:04.761Z,19.90
2022-09-30T11:03:39.858Z,20.30
2022-09-30T11:06:11.963Z,20.40
2022-09-30T11:08:51.243Z,20.60
2022-09-30T11:11:28.052Z,20.50
2022-09-30T11:14:07.710Z,20.60
2022-09-30T11:16:52.924Z,20.30
2022-09-30T11:19:33.480Z,19.80
2022-09-30T11:22:17.062Z,19.80
2022-09-30T11:24:50.389Z,19.10
2022-09-30T11:27:47.923Z,18.90
2022-09-30T11:30:41.661Z,18.50
2022-09-30T11:33:40.763Z,18.50
2022-09-30T11:36:28.098Z,18.70
2022-09-30T11:39:04.489Z,18.90
2022-09-30T11:41:49.572Z,19.00
2022-09-30T11:44:21.910Z,19.20
2022-09-30T11:46:51.509Z,19.70
2022-09-30T11:49:51.947Z,19.80
2022-09-30T11:52:37.037Z,19.80
2022-09-30T11:55:10.605Z,19.90
2022-09-30T11:57:56.417Z,19.90
2022-09-30T12:00:23.730Z,19.90
2022-09-30T12:02:59.158Z,19.70
2022-09-30T12:05:35.841Z,20.00
2022-09-30T12:08:17.825Z,19.90
2022-09-30T12:11:01.590Z,19.60
2022-09-30T12:13:37.340Z,19.90
2022-09-30T12:16:14.865Z,19.90
2022-09-30T12:18:46.292Z,19.70
2022-09-30T12:21:22.313Z,20.20
2022-09-30T12:24:11.946Z,20.20
2022-09-30T12:26:41.797Z,20.50
2022-09-30T12:29:33.351Z,20.30
2022-09-30T12:32:09.356Z,19.90
2022-09-30T12:35:04.584Z,20.00
2022-09-30T12:37:56.350Z,20.00
2022-09-30T12:40:45.162Z,19.80
2022-09-30T12:43:38.104Z,19.80
2022-09-30T12:46:49.883Z,19.90
2022-09-30T12:49:21.650Z,19.80
2022-09-30T12:51:57.779Z,20.10
2022-09-30T12:54:39.127Z,20.30
2022-09-30T12:57:09.355Z,20.20
2022-09-30T12:59:48.214Z,20.30
2022-09-30T13:02:40.397Z,20.50
2022-09-30T13:05:27.334Z,20.10
2022-09-30T13:08:06.902Z,19.90
2022-09-30T13:10:40.032Z,19.90
2022-09-30T13:13:26.785Z,20.00
2022-09-30T13:16:03.577Z,20.10
2022-09-30T13:18:30.773Z,20.60
2022-09-30T13:21:08.005Z,20.50
2022-09-30T13:23:41.175Z,20.30
2022-09-30T13:26:38.525Z,19.90
2022-09-30T13:29:06.214Z,20.30
2022-09-30T13:31:52.988Z,20.70
2022-09-30T13:34:24.176Z,20.50
2022-09-30T13:36:51.161Z,20.70
2022-09-30T13:39:46.438Z,20.80
2022-09-30T13:42:17.961Z,20.80
2022-09-30T13:45:03.534Z,20.60
2022-09-30T13:47:35.845Z,20.60
2022-09-30T13:50:18.506Z,20.70
2022-09-30T13:52:58.981Z,20.80
2022-09-30T13:55:50.361Z,21.00
2022-09-30T13:58:20.196Z,20.60
2022-09-30T14:00:56.211Z,20.50
2022-09-30T14:03:56.900Z,20.70
2022-09-30T14:06:42.118Z,20.90
2022-09-30T14:09:18.921Z,20.70
2022-09-30T14:11:59.297Z,20.90
2022-09-30T14:14:53.266Z,20.80
2022-09-30T14:17:52.561Z,20.90
2022-09-30T14:20:41.713Z,20.70
2022-09-30T14:23:16.489Z,20.50
2022-09-30T14:26:21.945Z,20.50
2022-09-30T14:28:58.802Z,20.30
2022-09-30T14:31:25.884Z,20.20
2022-09-30T14:33:53.069Z,19.80
2022-09-30T14:36:22.442Z,19.80
2022-09-30T14:38:53.720Z,20.00
2022-09-30T14:41:23.814Z,20.00
2022-09-30T14:43:55.372Z,20.20
2022-09-30T14:46:34.685Z,20.30
2022-09-30T14:49:09.935Z,20.20
2022-09-30T14:51:43.599Z,20.40
2022-09-30T14:54:20.788Z,20.20
2022-09-30T14:56:49.661Z,20.30
2022-09-30T14:59:24.879Z,19.90
2022-09-30T15:02:13.203Z,20.20
2022-09-30T15:04:46.903Z,20.00
2022-09-30T15:07:14.051Z,19.90
2022-09-30T15:09:44.270Z,19.90
2022-09-30T15:12:21.685Z,19.60
2022-09-30T15:14:54.485Z,19.30
2022-09-30T15:17:27.223Z,19.30
2022-09-30T15:19:56.041Z,18.90
2022-09-30T15:22:26.568Z,19.10
2022-09-30T15:24:54.636Z,19.30
2022-09-30T15:27:26.058Z,19.10
2022-09-30T15:30:03.681Z,19.30
2022-09-30T15:32:34.338Z,19.50
2022-09-30T15:35:24.071Z,19.40
2022-09-30T15:37:52.344Z,19.40
2022-09-30T15:40:43.305Z,19.50
2022-09-30T15:43:15.646Z,19.30
2022-09-30T15:45:48.646Z,18.90
2022-09-30T15:48:23.620Z,18.80
2022-09-30T15:50:59.436Z,18.80
2022-09-30T15:53:29.962Z,18.70
2022-09-30T15:56:15.832Z,18.70
2022-09-30T15:58:58.134Z,18.60
2022-09-30T16:01:26.921Z,18.60
2022-09-30T16:03:56.993Z,18.70
2022-09-30T16:06:37.551Z,18.70
2022-09-30T16:09:06.838Z,18.60
2022-09-30T16:11:41.870Z,18.40
2022-09-30T16:14:27.719Z,18.60
2022-09-30T16:16:58.408Z,18.40
2022-09-30T16:19:27.003Z,18.40
2022-09-30T16:21:55.273Z,18.40
2022-09-30T16:24:25.666Z,18.40
2022-09-30T16:26:55.750Z,18.40
2022-09-30T16:29:24.551Z,18.30
2022-09-30T16:31:54.437Z,18.10
2022-09-30T16:34:27.696Z,18.10
2022-09-30T16:37:03.464Z,18.10
2022-09-30T16:39:30.846Z,18.10
2022-09-30T16:41:57.748Z,18.10
2022-09-30T16:44:25.065Z,18.30
2022-09-30T16:46:52.241Z,18.30
2022-09-30T16:49:20.536Z,18.00
2022-09-30T16:51:47.920Z,17.80
2022-09-30T16:54:15.268Z,17.70
2022-09-30T16:56:42.623Z,17.80
2022-09-30T16:59:17.993Z,17.60
2022-09-30T17:01:45.307Z,17.50
2022-09-30T17:04:15.261Z,17.40
2022-09-30T17:06:44.679Z,17.60
2022-09-30T17:09:11.686Z,17.40
2022-09-30T17:11:38.578Z,17.40
2022-09-30T17:14:06.148Z,17.40
2022-09-30T17:16:33.523Z,17.50
2022-09-30T17:19:01.797Z,17.50
2022-09-30T17:21:28.738Z,17.30
2022-09-30T17:23:56.242Z,17.30
2022-09-30T17:26:23.584Z,17.40
2022-09-30T17:28:51.193Z,17.00
2022-09-30T17:31:18.128Z,17.00
2022-09-30T17:33:45.398Z,17.00
2022-09-30T17:36:14.365Z,17.10
2022-09-30T17:38:41.564Z,17.10
2022-09-30T17:41:31.754Z,17.10
2022-09-30T17:44:02.637Z,17.20
2022-09-30T17:46:43.803Z,17.10
2022-09-30T17:49:21.896Z,17.10
2022-09-30T17:51:50.839Z,17.30
2022-09-30T17:54:20.941Z,17.30
2022-09-30T17:56:47.942Z,17.20
2022-09-30T17:59:15.001Z,17.00
2022-09-30T18:01:42.223Z,17.10
2022-09-30T18:04:09.064Z,17.10
2022-09-30T18:06:35.925Z,17.20
2022-09-30T18:09:02.933Z,17.10
2022-09-30T18:11:31.209Z,16.80
2022-09-30T18:13:59.787Z,17.10
2022-09-30T18:16:30.977Z,17.10
2022-09-30T18:19:04.239Z,17.10
2022-09-30T18:21:32.585Z,17.00
2022-09-30T18:24:00.558Z,17.10
2022-09-30T18:26:33.245Z,17.00
2022-09-30T18:29:02.436Z,17.00
2022-09-30T18:31:34.945Z,16.80
2022-09-30T18:34:04.815Z,16.70
2022-09-30T18:36:32.673Z,16.70
2022-09-30T18:39:01.278Z,16.70
2022-09-30T18:41:30.668Z,16.70
2022-09-30T18:44:02.852Z,16.70
2022-09-30T18:46:31.396Z,16.70
2022-09-30T18:48:58.359Z,16.60
2022-09-30T18:51:25.681Z,16.60
2022-09-30T18:54:00.753Z,16.50
2022-09-30T18:56:32.571Z,16.50
2022-09-30T18:59:04.729Z,16.60
2022-09-30T19:01:34.141Z,16.50
2022-09-30T19:04:04.984Z,16.50
2022-09-30T19:06:32.968Z,16.50
2022-09-30T19:08:59.751Z,16.60
2022-09-30T19:11:28.018Z,16.50
2022-09-30T19:14:01.502Z,16.50
2022-09-30T19:16:35.272Z,16.30
2022-09-30T19:19:05.181Z,16.30
2022-09-30T19:21:36.445Z,16.40
2022-09-30T19:24:04.793Z,16.30
2022-09-30T19:26:33.851Z,16.30
2022-09-30T19:29:01.071Z,16.20
2022-09-30T19:31:28.698Z,16.20
2022-09-30T19:33:57.104Z,16.10
2022-09-30T19:36:27.043Z,16.10
2022-09-30T19:39:09.923Z,15.90
2022-09-30T19:41:38.083Z,15.90
2022-09-30T19:44:05.080Z,15.70
2022-09-30T19:46:32.666Z,15.70
2022-09-30T19:48:59.577Z,15.50
2022-09-30T19:51:29.266Z,15.30
2022-09-30T19:54:05.366Z,15.20
2022-09-30T19:56:36.020Z,15.30
2022-09-30T19:59:03.932Z,15.30
2022-09-30T20:01:34.310Z,15.10
2022-09-30T20:04:05.033Z,15.10
2022-09-30T20:06:33.481Z,15.00
2022-09-30T20:09:02.558Z,15.00
2022-09-30T20:11:36.089Z,15.00
2022-09-30T20:14:24.027Z,14.90
2022-09-30T20:16:51.653Z,14.80
2022-09-30T20:19:19.366Z,14.70
2022-09-30T20:21:47.416Z,14.60
2022-09-30T20:24:16.705Z,14.60
2022-09-30T20:26:46.701Z,14.70
2022-09-30T20:29:14.152Z,14.60
2022-09-30T20:31:42.877Z,14.50
2022-09-30T20:34:16.528Z,14.60
2022-09-30T20:36:45.131Z,14.50
2022-09-30T20:39:12.121Z,14.40
2022-09-30T20:41:39.918Z,14.30
2022-09-30T20:44:11.219Z,14.30
2022-09-30T20:46:39.337Z,14.30
2022-09-30T20:49:06.452Z,14.10
2022-09-30T20:51:34.039Z,14.10
2022-09-30T20:54:01.368Z,14.10
2022-09-30T20:56:44.147Z,13.90
2022-09-30T20:59:17.242Z,13.90
2022-09-30T21:01:44.450Z,13.80
2022-09-30T21:04:11.478Z,13.80
2022-09-30T21:06:38.413Z,13.70
2022-09-30T21:09:05.759Z,13.60
2022-09-30T21:11:52.423Z,13.50
2022-09-30T21:14:19.556Z,13.50
2022-09-30T21:16:46.551Z,13.50
2022-09-30T21:19:13.353Z,13.40
2022-09-30T21:21:40.218Z,13.40
2022-09-30T21:24:07.379Z,13.40
2022-09-30T21:26:35.571Z,13.30
2022-09-30T21:29:03.365Z,13.30
2022-09-30T21:31:30.759Z,13.30
2022-09-30T21:33:59.082Z,13.30
2022-09-30T21:36:27.732Z,13.30
2022-09-30T21:38:55.018Z,13.30
2022-09-30T21:41:22.802Z,13.20
2022-09-30T21:43:49.918Z,13.30
2022-09-30T21:46:18.563Z,13.10
2022-09-30T21:48:46.111Z,13.10
2022-09-30T21:51:14.038Z,13.20
2022-09-30T21:53:42.042Z,13.10
2022-09-30T21:56:12.327Z,13.20
2022-09-30T21:58:39.680Z,13.20
2022-09-30T22:01:07.523Z,13.10
2022-09-30T22:03:37.994Z,13.00
2022-09-30T22:06:09.298Z,13.00
2022-09-30T22:08:40.927Z,13.00
2022-09-30T22:11:28.438Z,13.00
2022-09-30T22:13:57.122Z,12.90
2022-09-30T22:16:27.117Z,13.10
2022-09-30T22:18:56.218Z,13.00
2022-09-30T22:21:23.784Z,13.00
2022-09-30T22:23:50.788Z,13.00
2022-09-30T22:26:20.844Z,13.00
2022-09-30T22:28:53.061Z,13.00
2022-09-30T22:31:22.772Z,12.90
2022-09-30T22:34:11.055Z,12.90
2022-09-30T22:36:57.216Z,12.90
2022-09-30T22:39:24.957Z,12.90
2022-09-30T22:41:53.979Z,12.90
2022-09-30T22:44:29.836Z,12.80
2022-09-30T22:47:00.496Z,12.80
2022-09-30T22:49:44.264Z,12.90
2022-09-30T22:52:11.277Z,12.90
2022-09-30T22:54:38.252Z,12.80
2022-09-30T22:57:07.829Z,12.80
2022-09-30T22:59:36.218Z,12.70
2022-09-30T23:02:05.056Z,12.80
2022-09-30T23:04:32.684Z,12.90
2022-09-30T23:07:00.612Z,12.90
2022-09-30T23:09:27.826Z,12.80
2022-09-30T23:11:57.023Z,12.80
2022-09-30T23:14:24.157Z,12.80
2022-09-30T23:16:51.552Z,12.70
2022-09-30T23:19:19.286Z,12.70
2022-09-30T23:21:46.291Z,12.60
2022-09-30T23:24:13.238Z,12.60
2022-09-30T23:26:40.578Z,12.70
2022-09-30T23:29:10.853Z,12.70
2022-09-30T23:31:38.280Z,12.60
2022-09-30T23:34:05.491Z,12.70
2022-09-30T23:36:36.717Z,12.70
2022-09-30T23:39:19.449Z,12.70
2022-09-30T23:41:47.578Z,12.70
2022-09-30T23:44:18.843Z,12.70
2022-09-30T23:47:05.756Z,12.70
2022-09-30T23:49:35.737Z,12.70
2022-09-30T23:52:04.757Z,12.70
2022-09-30T23:54:31.961Z,12.80
2022-09-30T23:56:58.857Z,12.70
2022-09-30T23:59:25.889Z,12.70
